Forside
METAR-TAF:

METAR-TAF

Lufthavne :

Kagoshima, Japan

Breddekreds: 31-48N, længdekreds: 130-43E, højde: 272 m

Aktuelle vejr

Denne rapport blev lavet for 26 minutter siden, kl. 08:00 UTC
Vind 16 kt fra nordvest
Temperatur 12°C
Fugtighed 38%
Tryk 1023 hPa
Sigt 10 km eller mere
Nogle få skyer i en højde af 3500 ft

METAR: RJFK 220800Z 31016KT 9999 FEW035 12/M02 Q1023 RMK 1CU035 A3023 VOLCANIC ASH CLOUD SE-S

Tid: 17:26 (08:26 UTC)

Vejrudsigter

Denne rapport blev lavet for 3 timer og 21 minutter siden, kl. 05:05 UTC
Foreløbig gælder fra 22 på 06 UTC til 23 på 12 UTC
Vind 9 kt fra nordvest
Sigt 10 km eller mere
Nogle få skyer i en højde af 3000 ft
Midlertidig
fra 22 på 06 UTC til 22 på 08 UTC
Vind 17 kt fra nordvest med vindstød på up til 27 kt

TAF: RJFK 220505Z 2206/2312 31009KT 9999 FEW030 TEMPO 2206/2208 31017G27KT

Vejrobservationer og prognoser fra mere end 4000 lufthavne (METAR og TAF).

De gule og røde prikker repræsenterer de meteorologiske stationer.

Flyt musen over at se navnet på stationen.

Så klik over at se vejr observationer og prognoser.

At skifte det kort: Klik på de grønne knapper med et sort kors for at zoome ind; på den grønne knap med en bindestreg for at zoome ud; eller på de grønne pile for tilstødende kort.


METAR-TAF: